createdAt,value
2023-02-13T00:00:50.010Z,57.38
2023-02-13T00:02:52.105Z,57.49
2023-02-13T00:04:53.681Z,57.29
2023-02-13T00:06:55.373Z,57.40
2023-02-13T00:08:57.001Z,57.37
2023-02-13T00:10:59.073Z,57.49
2023-02-13T00:13:00.864Z,57.47
2023-02-13T00:15:04.828Z,57.45
2023-02-13T00:17:07.311Z,57.12
2023-02-13T00:19:10.117Z,57.35
2023-02-13T00:21:13.615Z,57.00
2023-02-13T00:23:15.172Z,57.39
2023-02-13T00:25:16.850Z,56.87
2023-02-13T00:27:18.520Z,57.08
2023-02-13T00:29:20.224Z,57.46
2023-02-13T00:31:23.371Z,57.23
2023-02-13T00:33:24.973Z,57.08
2023-02-13T00:35:27.998Z,56.65
2023-02-13T00:37:32.164Z,56.09
2023-02-13T00:39:33.967Z,55.25
2023-02-13T00:41:35.625Z,55.30
2023-02-13T00:43:37.894Z,55.22
2023-02-13T00:45:39.726Z,55.17
2023-02-13T00:47:47.384Z,54.87
2023-02-13T00:49:48.895Z,55.67
2023-02-13T00:51:50.684Z,56.33
2023-02-13T00:53:52.452Z,56.51
2023-02-13T00:55:54.554Z,56.46
2023-02-13T00:57:56.152Z,55.98
2023-02-13T00:59:58.082Z,56.66
2023-02-13T01:01:59.803Z,56.58
2023-02-13T01:04:02.907Z,56.68
2023-02-13T01:06:05.347Z,56.71
2023-02-13T01:08:07.733Z,56.78
2023-02-13T01:10:09.834Z,56.58
2023-02-13T01:12:11.426Z,56.78
2023-02-13T01:14:13.003Z,57.02
2023-02-13T01:16:15.700Z,56.84
2023-02-13T01:18:19.731Z,57.26
2023-02-13T01:20:23.739Z,56.77
2023-02-13T01:22:25.438Z,55.09
2023-02-13T01:24:27.585Z,54.73
2023-02-13T01:26:29.260Z,55.15
2023-02-13T01:28:30.900Z,55.47
2023-02-13T01:30:32.852Z,55.56
2023-02-13T01:32:34.589Z,56.36
2023-02-13T01:34:36.188Z,56.21
2023-02-13T01:36:39.234Z,56.71
2023-02-13T01:38:41.302Z,56.99
2023-02-13T01:40:47.134Z,57.56
2023-02-13T01:42:48.768Z,57.28
2023-02-13T01:44:52.849Z,57.67
2023-02-13T01:46:54.455Z,57.64
2023-02-13T01:49:01.177Z,57.24
2023-02-13T01:51:06.705Z,57.28
2023-02-13T01:53:14.037Z,57.66
2023-02-13T01:55:16.462Z,57.26
2023-02-13T01:57:23.048Z,57.38
2023-02-13T01:59:29.575Z,57.51
2023-02-13T02:01:32.466Z,57.27
2023-02-13T02:03:38.648Z,57.04
2023-02-13T02:05:40.393Z,57.36
2023-02-13T02:07:42.747Z,57.35
2023-02-13T02:09:46.263Z,57.26
2023-02-13T02:11:53.030Z,57.56
2023-02-13T02:13:56.077Z,57.39
2023-02-13T02:15:57.886Z,57.21
2023-02-13T02:17:59.997Z,57.35
2023-02-13T02:20:15.251Z,57.12
2023-02-13T02:22:44.890Z,57.23
2023-02-13T02:25:12.009Z,57.54
2023-02-13T02:27:56.191Z,58.19
2023-02-13T02:30:33.428Z,58.49
2023-02-13T02:32:56.344Z,58.50
2023-02-13T02:35:13.109Z,58.58
2023-02-13T02:37:30.637Z,57.69
2023-02-13T02:39:44.096Z,56.69
2023-02-13T02:41:58.234Z,56.33
2023-02-13T02:44:07.912Z,55.72
2023-02-13T02:46:17.800Z,55.75
2023-02-13T02:48:31.916Z,55.47
2023-02-13T02:50:38.258Z,55.78
2023-02-13T02:52:45.895Z,55.66
2023-02-13T02:54:53.998Z,55.39
2023-02-13T02:57:00.655Z,55.39
2023-02-13T02:59:06.317Z,55.82
2023-02-13T03:01:12.838Z,55.98
2023-02-13T03:03:18.472Z,55.96
2023-02-13T03:05:27.303Z,55.74
2023-02-13T03:07:29.054Z,55.97
2023-02-13T03:09:37.269Z,56.23
2023-02-13T03:11:41.470Z,56.15
2023-02-13T03:13:47.854Z,55.78
2023-02-13T03:15:52.132Z,55.54
2023-02-13T03:17:54.967Z,55.54
2023-02-13T03:20:03.686Z,55.49
2023-02-13T03:22:16.288Z,55.73
2023-02-13T03:24:26.002Z,55.67
2023-02-13T03:26:44.147Z,55.49
2023-02-13T03:28:52.690Z,55.55
2023-02-13T03:31:01.666Z,55.12
2023-02-13T03:33:17.974Z,54.87
2023-02-13T03:35:32.563Z,56.02
2023-02-13T03:37:44.583Z,55.61
2023-02-13T03:39:54.452Z,55.47
2023-02-13T03:42:00.617Z,55.59
2023-02-13T03:44:11.282Z,55.71
2023-02-13T03:46:15.134Z,55.42
2023-02-13T03:48:20.050Z,55.92
2023-02-13T03:50:22.575Z,56.32
2023-02-13T03:52:29.234Z,56.08
2023-02-13T03:54:37.812Z,55.88
2023-02-13T03:56:41.467Z,56.03
2023-02-13T03:58:46.522Z,55.86
2023-02-13T04:00:50.724Z,55.88
2023-02-13T04:03:00.994Z,56.32
2023-02-13T04:05:09.518Z,55.70
2023-02-13T04:07:14.032Z,55.98
2023-02-13T04:09:15.941Z,56.62
2023-02-13T04:11:25.193Z,56.03
2023-02-13T04:13:31.620Z,56.78
2023-02-13T04:15:39.144Z,56.37
2023-02-13T04:17:45.798Z,56.33
2023-02-13T04:19:47.992Z,56.31
2023-02-13T04:21:55.797Z,56.20
2023-02-13T04:23:57.377Z,55.76
2023-02-13T04:26:02.276Z,55.80
2023-02-13T04:28:05.992Z,56.15
2023-02-13T04:32:24.564Z,56.55
2023-02-13T04:34:26.186Z,56.60
2023-02-13T04:36:27.875Z,56.12
2023-02-13T04:38:29.494Z,56.69
2023-02-13T04:40:32.053Z,56.01
2023-02-13T04:42:34.841Z,55.75
2023-02-13T04:44:37.754Z,56.56
2023-02-13T04:46:39.525Z,56.20
2023-02-13T04:48:41.263Z,56.38
2023-02-13T04:50:42.826Z,56.57
2023-02-13T04:52:44.448Z,56.43
2023-02-13T04:54:46.071Z,56.43
2023-02-13T04:56:47.685Z,56.70
2023-02-13T04:58:49.324Z,56.77
2023-02-13T05:00:52.396Z,56.30
2023-02-13T05:02:54.895Z,56.57
2023-02-13T05:04:56.547Z,56.39
2023-02-13T05:06:58.254Z,56.68
2023-02-13T05:08:59.837Z,56.76
2023-02-13T05:11:01.546Z,56.89
2023-02-13T05:13:03.181Z,56.87
2023-02-13T05:15:05.912Z,56.96
2023-02-13T05:17:09.057Z,55.83
2023-02-13T05:19:10.881Z,55.40
2023-02-13T05:21:12.602Z,54.57
2023-02-13T05:23:15.055Z,54.25
2023-02-13T05:25:16.819Z,53.51
2023-02-13T05:27:18.359Z,53.84
2023-02-13T05:29:20.219Z,53.52
2023-02-13T05:31:21.965Z,53.98
2023-02-13T05:33:25.307Z,53.82
2023-02-13T05:35:26.834Z,53.93
2023-02-13T05:37:28.389Z,53.62
2023-02-13T05:39:29.909Z,53.40
2023-02-13T05:41:31.476Z,53.83
2023-02-13T05:43:33.083Z,54.13
2023-02-13T05:45:34.659Z,54.26
2023-02-13T05:47:36.588Z,53.59
2023-02-13T05:49:39.760Z,53.47
2023-02-13T05:51:42.020Z,52.83
2023-02-13T05:53:43.642Z,52.26
2023-02-13T05:55:45.294Z,52.46
2023-02-13T05:57:46.818Z,52.41
2023-02-13T05:59:48.514Z,52.52
2023-02-13T06:01:50.114Z,52.38
2023-02-13T06:03:51.734Z,52.46
2023-02-13T06:05:55.428Z,52.73
2023-02-13T06:07:57.036Z,53.38
2023-02-13T06:09:58.619Z,53.56
2023-02-13T06:12:00.261Z,53.87
2023-02-13T06:14:01.816Z,53.70
2023-02-13T06:16:03.710Z,53.29
2023-02-13T06:18:05.667Z,54.06
2023-02-13T06:20:08.653Z,54.30
2023-02-13T06:22:11.543Z,54.67
2023-02-13T06:24:13.155Z,54.50
2023-02-13T06:26:14.854Z,54.47
2023-02-13T06:28:16.687Z,54.59
2023-02-13T06:30:19.011Z,55.10
2023-02-13T06:32:20.618Z,55.07
2023-02-13T06:34:22.298Z,55.37
2023-02-13T06:36:23.833Z,55.36
2023-02-13T06:38:26.860Z,55.51
2023-02-13T06:40:28.744Z,55.79
2023-02-13T06:42:30.359Z,55.46
2023-02-13T06:44:31.958Z,55.38
2023-02-13T06:46:33.818Z,55.04
2023-02-13T06:48:35.692Z,54.54
2023-02-13T06:50:37.285Z,54.74
2023-02-13T06:52:38.933Z,54.58
2023-02-13T06:54:47.671Z,54.88
2023-02-13T06:56:49.598Z,55.03
2023-02-13T06:58:51.164Z,54.94
2023-02-13T07:00:53.203Z,55.21
2023-02-13T07:02:54.877Z,55.26
2023-02-13T07:04:56.496Z,55.31
2023-02-13T07:06:58.141Z,55.45
2023-02-13T07:09:01.300Z,55.73
2023-02-13T07:11:04.574Z,56.08
2023-02-13T07:13:06.776Z,56.16
2023-02-13T07:15:09.259Z,55.96
2023-02-13T07:17:13.113Z,56.30
2023-02-13T07:19:14.830Z,55.86
2023-02-13T07:21:16.488Z,55.58
2023-02-13T07:23:18.102Z,54.63
2023-02-13T07:25:19.890Z,55.30
2023-02-13T07:27:22.926Z,55.92
2023-02-13T07:29:24.568Z,55.88
2023-02-13T07:31:26.257Z,55.46
2023-02-13T07:33:27.903Z,55.47
2023-02-13T07:35:29.868Z,55.93
2023-02-13T07:37:31.761Z,56.55
2023-02-13T07:39:33.350Z,56.61
2023-02-13T07:41:35.020Z,56.49
2023-02-13T07:43:38.066Z,56.50
2023-02-13T07:45:39.726Z,56.25
2023-02-13T07:47:41.381Z,55.82
2023-02-13T07:49:42.982Z,56.44
2023-02-13T07:51:44.579Z,56.62
2023-02-13T07:53:46.509Z,56.89
2023-02-13T07:55:48.192Z,57.23
2023-02-13T07:57:50.208Z,57.10
2023-02-13T07:59:53.287Z,56.87
2023-02-13T08:01:54.830Z,57.10
2023-02-13T08:03:56.544Z,56.50
2023-02-13T08:05:58.459Z,56.30
2023-02-13T08:08:00.417Z,56.49
2023-02-13T08:10:02.359Z,55.52
2023-02-13T08:12:06.972Z,55.63
2023-02-13T08:14:08.642Z,54.65
2023-02-13T08:16:11.593Z,54.42
2023-02-13T08:18:13.242Z,54.09
2023-02-13T08:20:14.925Z,54.42
2023-02-13T08:22:16.604Z,54.15
2023-02-13T08:24:18.270Z,53.87
2023-02-13T08:26:19.844Z,53.48
2023-02-13T08:28:21.599Z,53.07
2023-02-13T08:30:23.523Z,52.63
2023-02-13T08:32:26.504Z,52.70
2023-02-13T08:34:28.094Z,52.65
2023-02-13T08:36:38.465Z,52.80
2023-02-13T08:40:42.633Z,52.49
2023-02-13T08:42:44.198Z,52.87
2023-02-13T08:44:45.769Z,52.60
2023-02-13T08:46:47.393Z,53.08
2023-02-13T08:48:51.171Z,52.98
2023-02-13T08:50:52.637Z,52.53
2023-02-13T08:52:54.227Z,52.38
2023-02-13T08:54:55.836Z,52.14
2023-02-13T08:56:58.689Z,51.06
2023-02-13T08:59:00.446Z,52.59
2023-02-13T09:01:05.139Z,53.16
2023-02-13T09:03:08.487Z,53.26
2023-02-13T09:05:12.245Z,52.99
2023-02-13T09:07:13.822Z,51.02
2023-02-13T09:09:15.433Z,51.64
2023-02-13T09:11:17.059Z,52.82
2023-02-13T09:13:18.659Z,52.56
2023-02-13T09:15:20.765Z,52.04
2023-02-13T09:17:22.394Z,51.35
2023-02-13T09:19:24.013Z,52.09
2023-02-13T09:21:26.915Z,51.07
2023-02-13T09:23:31.796Z,50.79
2023-02-13T09:25:33.330Z,51.64
2023-02-13T09:27:35.303Z,50.40
2023-02-13T09:29:37.077Z,51.27
2023-02-13T09:31:38.860Z,50.58
2023-02-13T09:33:40.631Z,50.83
2023-02-13T09:35:42.192Z,49.97
2023-02-13T09:37:45.400Z,49.56
2023-02-13T09:39:47.071Z,50.16
2023-02-13T09:41:52.002Z,49.23
2023-02-13T09:43:57.842Z,48.73
2023-02-13T09:46:04.908Z,49.04
2023-02-13T09:48:10.428Z,48.48
2023-02-13T09:50:16.371Z,48.82
2023-02-13T09:52:17.973Z,48.91
2023-02-13T09:54:20.950Z,48.89
2023-02-13T09:56:35.789Z,48.87
2023-02-13T09:58:45.886Z,49.75
2023-02-13T10:00:53.621Z,49.47
2023-02-13T10:03:20.121Z,49.50
2023-02-13T10:05:41.505Z,48.25
2023-02-13T10:07:48.376Z,47.91
2023-02-13T10:10:01.962Z,46.87
2023-02-13T10:12:39.050Z,45.90
2023-02-13T10:14:50.433Z,45.12
2023-02-13T10:16:56.692Z,44.87
2023-02-13T10:19:04.556Z,44.20
2023-02-13T10:21:08.018Z,43.82
2023-02-13T10:23:21.043Z,42.91
2023-02-13T10:25:27.587Z,42.07
2023-02-13T10:27:34.551Z,41.83
2023-02-13T10:29:45.494Z,41.08
2023-02-13T10:31:49.626Z,39.99
2023-02-13T10:33:53.140Z,40.26
2023-02-13T10:36:00.905Z,39.42
2023-02-13T10:38:12.436Z,38.79
2023-02-13T10:40:14.848Z,38.86
2023-02-13T10:42:36.659Z,37.32
2023-02-13T10:44:50.561Z,37.37
2023-02-13T10:47:02.564Z,37.71
2023-02-13T10:49:27.903Z,36.82
2023-02-13T10:51:33.574Z,36.27
2023-02-13T10:53:50.926Z,34.49
2023-02-13T10:56:05.851Z,34.81
2023-02-13T10:58:16.636Z,33.61
2023-02-13T11:00:25.638Z,32.32
2023-02-13T11:02:28.510Z,31.70
2023-02-13T11:04:30.251Z,32.11
2023-02-13T11:06:37.137Z,32.71
2023-02-13T11:08:41.712Z,31.85
2023-02-13T11:10:43.368Z,31.50
2023-02-13T11:12:46.237Z,31.45
2023-02-13T11:14:57.006Z,29.84
2023-02-13T11:17:01.217Z,30.54
2023-02-13T11:19:02.922Z,29.50
2023-02-13T11:21:10.306Z,29.71
2023-02-13T11:23:33.256Z,28.45
2023-02-13T11:25:35.126Z,28.32
2023-02-13T11:27:39.533Z,27.77
2023-02-13T11:29:53.377Z,26.98
2023-02-13T11:32:06.962Z,26.35
2023-02-13T11:34:26.353Z,26.16
2023-02-13T11:36:29.841Z,26.53
2023-02-13T11:38:31.573Z,26.09
2023-02-13T11:40:33.375Z,26.30
2023-02-13T11:42:36.621Z,26.15
2023-02-13T11:44:38.450Z,24.76
2023-02-13T11:46:47.314Z,23.97
2023-02-13T11:49:18.854Z,23.63
2023-02-13T11:51:20.588Z,24.53
2023-02-13T11:53:25.150Z,24.93
2023-02-13T11:55:31.785Z,24.35
2023-02-13T11:57:35.139Z,24.31
2023-02-13T11:59:42.397Z,23.58
2023-02-13T12:01:44.463Z,24.80
2023-02-13T12:03:58.241Z,23.66
2023-02-13T12:06:04.816Z,24.67
2023-02-13T12:08:09.578Z,23.65
2023-02-13T12:10:21.390Z,24.24
2023-02-13T12:12:28.933Z,23.58
2023-02-13T12:14:36.947Z,23.28
2023-02-13T12:16:43.170Z,23.14
2023-02-13T12:18:49.166Z,22.42
2023-02-13T12:21:00.492Z,22.72
2023-02-13T12:23:18.764Z,23.73
2023-02-13T12:25:39.896Z,23.85
2023-02-13T12:27:51.493Z,24.18
2023-02-13T12:30:14.474Z,23.92
2023-02-13T12:32:19.830Z,23.52
2023-02-13T12:34:51.200Z,24.08
2023-02-13T12:37:06.248Z,24.54
2023-02-13T12:39:17.933Z,24.27
2023-02-13T12:41:22.516Z,24.78
2023-02-13T12:43:43.671Z,24.37
2023-02-13T12:45:51.566Z,23.91
2023-02-13T12:48:10.623Z,24.56
2023-02-13T12:50:31.174Z,24.06
2023-02-13T12:52:51.194Z,24.92
2023-02-13T12:55:06.290Z,24.79
2023-02-13T12:57:19.605Z,25.08
2023-02-13T12:59:33.296Z,24.57
2023-02-13T13:01:57.568Z,25.51
2023-02-13T13:04:14.397Z,25.62
2023-02-13T13:06:38.770Z,26.26
2023-02-13T13:09:10.120Z,25.92
2023-02-13T13:11:29.256Z,27.47
2023-02-13T13:13:44.915Z,27.03
2023-02-13T13:15:53.629Z,28.40
2023-02-13T13:18:05.842Z,28.46
2023-02-13T13:20:28.922Z,29.33
2023-02-13T13:22:34.641Z,30.57
2023-02-13T13:24:48.827Z,30.97
2023-02-13T13:26:53.403Z,32.13
2023-02-13T13:28:58.130Z,32.35
2023-02-13T13:31:01.107Z,32.74
2023-02-13T13:33:06.748Z,33.35
2023-02-13T13:35:14.080Z,34.13
2023-02-13T13:37:25.616Z,33.94
2023-02-13T13:39:40.151Z,33.42
2023-02-13T13:41:49.511Z,33.41
2023-02-13T13:44:03.263Z,34.35
2023-02-13T13:46:11.375Z,33.46
2023-02-13T13:48:35.961Z,33.82
2023-02-13T13:50:40.816Z,34.17
2023-02-13T13:53:08.956Z,34.96
2023-02-13T13:55:49.428Z,35.18
2023-02-13T13:58:00.669Z,35.71
2023-02-13T14:00:27.922Z,35.23
2023-02-13T14:02:45.265Z,35.98
2023-02-13T14:05:02.256Z,36.06
2023-02-13T14:07:24.145Z,35.87
2023-02-13T14:09:40.948Z,36.71
2023-02-13T14:11:46.776Z,36.68
2023-02-13T14:13:48.722Z,36.20
2023-02-13T14:15:52.740Z,36.50
2023-02-13T14:17:55.167Z,36.24
2023-02-13T14:19:56.997Z,35.80
2023-02-13T14:22:26.584Z,36.81
2023-02-13T14:24:28.274Z,36.44
2023-02-13T14:26:39.703Z,36.69
2023-02-13T14:28:42.958Z,36.85
2023-02-13T14:30:45.142Z,37.01
2023-02-13T14:32:46.826Z,35.87
2023-02-13T14:34:55.341Z,35.73
2023-02-13T14:37:13.534Z,36.11
2023-02-13T14:39:28.002Z,36.45
2023-02-13T14:41:56.956Z,36.49
2023-02-13T14:43:58.689Z,37.05
2023-02-13T14:46:08.685Z,36.87
2023-02-13T14:48:14.317Z,35.95
2023-02-13T14:50:21.168Z,37.19
2023-02-13T14:52:25.252Z,37.34
2023-02-13T14:54:31.945Z,36.60
2023-02-13T14:56:33.762Z,37.73
2023-02-13T14:58:48.447Z,36.96
2023-02-13T15:00:54.882Z,37.53
2023-02-13T15:03:02.313Z,37.31
2023-02-13T15:05:07.211Z,37.34
2023-02-13T15:07:15.928Z,37.83
2023-02-13T15:09:23.971Z,37.75
2023-02-13T15:11:37.313Z,36.73
2023-02-13T15:13:40.200Z,37.85
2023-02-13T15:15:42.195Z,38.12
2023-02-13T15:17:43.850Z,37.52
2023-02-13T15:19:47.761Z,38.00
2023-02-13T15:21:53.505Z,38.03
2023-02-13T15:23:56.856Z,38.65
2023-02-13T15:25:59.982Z,38.03
2023-02-13T15:28:03.665Z,38.10
2023-02-13T15:30:19.669Z,38.10
2023-02-13T15:32:27.391Z,37.73
2023-02-13T15:34:30.748Z,38.05
2023-02-13T15:36:39.486Z,38.99
2023-02-13T15:38:41.244Z,37.93
2023-02-13T15:40:44.502Z,38.60
2023-02-13T15:42:46.090Z,39.28
2023-02-13T15:44:50.044Z,38.81
2023-02-13T15:46:55.158Z,39.30
2023-02-13T15:49:00.702Z,38.91
2023-02-13T15:51:02.745Z,39.46
2023-02-13T15:53:09.855Z,38.73
2023-02-13T15:55:19.520Z,39.02
2023-02-13T15:57:22.573Z,38.43
2023-02-13T15:59:29.441Z,39.42
2023-02-13T16:01:31.787Z,39.39
2023-02-13T16:03:36.005Z,39.96
2023-02-13T16:05:41.063Z,39.76
2023-02-13T16:07:51.631Z,39.82
2023-02-13T16:10:16.444Z,40.07
2023-02-13T16:12:24.155Z,39.47
2023-02-13T16:14:27.362Z,40.61
2023-02-13T16:16:33.883Z,40.34
2023-02-13T16:18:40.086Z,40.97
2023-02-13T16:20:41.660Z,40.42
2023-02-13T16:22:46.253Z,41.19
2023-02-13T16:24:50.794Z,41.18
2023-02-13T16:26:53.345Z,41.51
2023-02-13T16:28:55.235Z,42.11
2023-02-13T16:31:00.168Z,41.20
2023-02-13T16:33:27.876Z,42.23
2023-02-13T16:35:36.675Z,41.61
2023-02-13T16:37:50.565Z,42.51
2023-02-13T16:39:52.330Z,41.73
2023-02-13T16:41:54.121Z,41.40
2023-02-13T16:43:56.414Z,41.86
2023-02-13T16:46:11.458Z,42.31
2023-02-13T16:48:15.519Z,41.93
2023-02-13T16:50:17.359Z,42.33
2023-02-13T16:52:22.821Z,42.18
2023-02-13T16:54:39.543Z,42.53
2023-02-13T16:56:44.180Z,42.36
2023-02-13T16:58:45.833Z,42.65
2023-02-13T17:00:50.135Z,43.04
2023-02-13T17:02:51.799Z,43.34
2023-02-13T17:04:55.703Z,42.64
2023-02-13T17:06:57.360Z,42.54
2023-02-13T17:09:00.298Z,43.09
2023-02-13T17:11:03.888Z,43.35
2023-02-13T17:13:15.154Z,43.33
2023-02-13T17:15:18.924Z,43.11
2023-02-13T17:17:22.278Z,43.13
2023-02-13T17:19:23.999Z,43.31
2023-02-13T17:21:25.606Z,43.38
2023-02-13T17:23:27.245Z,43.33
2023-02-13T17:25:31.837Z,43.34
2023-02-13T17:27:33.583Z,43.52
2023-02-13T17:29:35.196Z,43.75
2023-02-13T17:31:37.064Z,43.79
2023-02-13T17:33:39.408Z,43.43
2023-02-13T17:35:41.058Z,43.92
2023-02-13T17:37:44.135Z,44.09
2023-02-13T17:39:46.380Z,44.54
2023-02-13T17:41:49.365Z,44.41
2023-02-13T17:43:50.971Z,44.08
2023-02-13T17:45:52.660Z,44.58
2023-02-13T17:47:54.398Z,44.80
2023-02-13T17:50:08.532Z,45.04
2023-02-13T17:52:15.464Z,44.96
2023-02-13T17:54:17.130Z,44.83
2023-02-13T17:56:18.792Z,44.82
2023-02-13T17:58:21.858Z,44.75
2023-02-13T18:00:25.757Z,45.11
2023-02-13T18:02:27.385Z,44.70
2023-02-13T18:04:29.064Z,44.62
2023-02-13T18:06:31.124Z,44.59
2023-02-13T18:08:32.844Z,44.72
2023-02-13T18:10:37.126Z,44.65
2023-02-13T18:12:38.952Z,44.78
2023-02-13T18:14:42.375Z,45.52
2023-02-13T18:16:44.171Z,45.00
2023-02-13T18:18:45.954Z,44.89
2023-02-13T18:20:55.041Z,45.10
2023-02-13T18:22:56.888Z,45.45
2023-02-13T18:24:58.444Z,44.91
2023-02-13T18:27:00.169Z,44.73
2023-02-13T18:29:01.765Z,45.07
2023-02-13T18:31:05.074Z,45.15
2023-02-13T18:33:06.736Z,45.08
2023-02-13T18:35:08.720Z,45.34
2023-02-13T18:37:10.322Z,45.94
2023-02-13T18:39:11.986Z,45.92
2023-02-13T18:41:13.666Z,45.71
2023-02-13T18:43:15.474Z,46.15
2023-02-13T18:45:17.351Z,45.46
2023-02-13T18:47:22.255Z,45.89
2023-02-13T18:49:24.429Z,45.55
2023-02-13T18:51:26.231Z,45.43
2023-02-13T18:53:28.577Z,45.20
2023-02-13T18:55:30.152Z,45.18
2023-02-13T18:57:31.696Z,44.99
2023-02-13T18:59:33.231Z,45.53
2023-02-13T19:01:34.999Z,45.37
2023-02-13T19:03:38.979Z,45.56
2023-02-13T19:05:40.712Z,44.83
2023-02-13T19:07:44.603Z,45.04
2023-02-13T19:09:46.229Z,45.12
2023-02-13T19:11:47.900Z,44.79
2023-02-13T19:13:53.685Z,44.69
2023-02-13T19:15:55.390Z,44.97
2023-02-13T19:17:56.985Z,45.26
2023-02-13T19:19:59.992Z,45.18
2023-02-13T19:22:01.672Z,44.54
2023-02-13T19:24:05.103Z,44.62
2023-02-13T19:26:07.634Z,44.58
2023-02-13T19:28:22.450Z,44.30
2023-02-13T19:30:24.360Z,44.52
2023-02-13T19:32:26.023Z,43.74
2023-02-13T19:34:27.716Z,43.99
2023-02-13T19:36:30.831Z,43.78
2023-02-13T19:38:32.456Z,43.70
2023-02-13T19:40:34.508Z,44.10
2023-02-13T19:42:36.113Z,43.49
2023-02-13T19:44:37.688Z,43.65
2023-02-13T19:46:39.469Z,43.85
2023-02-13T19:48:41.592Z,43.91
2023-02-13T19:50:43.388Z,44.39
2023-02-13T19:52:46.353Z,43.95
2023-02-13T19:54:48.316Z,42.99
2023-02-13T19:56:49.963Z,42.76
2023-02-13T19:58:51.570Z,43.07
2023-02-13T20:00:53.360Z,43.10
2023-02-13T20:03:00.268Z,43.47
2023-02-13T20:05:01.954Z,44.28
2023-02-13T20:07:03.707Z,44.68
2023-02-13T20:09:10.485Z,44.39
2023-02-13T20:11:14.284Z,44.22
2023-02-13T20:13:15.936Z,44.68
2023-02-13T20:15:17.678Z,44.86
2023-02-13T20:17:19.432Z,45.14
2023-02-13T20:19:22.266Z,44.98
2023-02-13T20:21:24.030Z,45.11
2023-02-13T20:23:25.785Z,45.39
2023-02-13T20:25:28.788Z,45.80
2023-02-13T20:27:30.502Z,45.52
2023-02-13T20:29:32.150Z,45.39
2023-02-13T20:31:34.034Z,45.52
2023-02-13T20:33:36.103Z,45.23
2023-02-13T20:35:37.866Z,44.98
2023-02-13T20:37:39.605Z,44.79
2023-02-13T20:39:41.340Z,45.27
2023-02-13T20:41:44.426Z,45.40
2023-02-13T20:43:46.485Z,45.41
2023-02-13T20:45:48.186Z,45.61
2023-02-13T20:47:49.975Z,45.56
2023-02-13T20:49:51.745Z,45.68
2023-02-13T20:51:53.674Z,45.53
2023-02-13T20:53:55.531Z,45.55
2023-02-13T20:56:03.234Z,45.65
2023-02-13T20:58:06.341Z,45.39
2023-02-13T21:00:09.787Z,45.28
2023-02-13T21:02:12.468Z,45.36
2023-02-13T21:04:14.227Z,44.80
2023-02-13T21:06:16.717Z,45.22
2023-02-13T21:08:18.676Z,45.68
2023-02-13T21:10:20.679Z,45.57
2023-02-13T21:12:22.400Z,45.97
2023-02-13T21:14:25.399Z,45.83
2023-02-13T21:16:29.503Z,46.00
2023-02-13T21:18:31.795Z,45.88
2023-02-13T21:20:33.500Z,45.80
2023-02-13T21:22:36.820Z,45.98
2023-02-13T21:24:39.932Z,46.34
2023-02-13T21:26:42.325Z,45.94
2023-02-13T21:28:45.479Z,45.84
2023-02-13T21:30:51.178Z,46.34
2023-02-13T21:32:52.902Z,46.44
2023-02-13T21:34:55.293Z,46.60
2023-02-13T21:36:57.330Z,46.68
2023-02-13T21:38:59.903Z,46.03
2023-02-13T21:41:05.893Z,45.73
2023-02-13T21:43:07.557Z,46.21
2023-02-13T21:45:09.776Z,46.05
2023-02-13T21:47:12.972Z,45.84
2023-02-13T21:49:16.918Z,46.30
2023-02-13T21:51:20.017Z,46.42
2023-02-13T21:53:21.698Z,46.58
2023-02-13T21:55:23.500Z,46.62
2023-02-13T21:57:25.256Z,46.87
2023-02-13T21:59:27.221Z,46.92
2023-02-13T22:01:31.238Z,46.74
2023-02-13T22:03:34.257Z,46.85
2023-02-13T22:05:36.013Z,46.51
2023-02-13T22:07:37.654Z,46.67
2023-02-13T22:09:39.353Z,46.50
2023-02-13T22:11:41.057Z,46.35
2023-02-13T22:13:42.714Z,46.39
2023-02-13T22:15:44.356Z,46.25
2023-02-13T22:17:45.959Z,46.31
2023-02-13T22:19:49.012Z,46.10
2023-02-13T22:21:50.925Z,46.77
2023-02-13T22:23:53.102Z,46.66
2023-02-13T22:25:54.802Z,46.40
2023-02-13T22:27:57.776Z,46.61
2023-02-13T22:29:59.610Z,46.68
2023-02-13T22:32:01.474Z,46.51
2023-02-13T22:34:05.356Z,46.77
2023-02-13T22:36:11.278Z,46.59
2023-02-13T22:38:13.158Z,46.41
2023-02-13T22:40:14.845Z,46.47
2023-02-13T22:42:16.554Z,46.68
2023-02-13T22:44:18.186Z,46.86
2023-02-13T22:46:22.005Z,47.00
2023-02-13T22:48:23.629Z,46.90
2023-02-13T22:50:28.306Z,46.79
2023-02-13T22:52:31.273Z,47.02
2023-02-13T22:56:48.455Z,47.31
2023-02-13T22:58:50.085Z,47.13
2023-02-13T23:00:51.902Z,47.44
2023-02-13T23:02:53.567Z,47.41
2023-02-13T23:04:55.372Z,47.28
2023-02-13T23:06:57.222Z,47.47
2023-02-13T23:09:00.481Z,47.43
2023-02-13T23:11:13.372Z,47.67
2023-02-13T23:13:15.211Z,47.56
2023-02-13T23:15:16.866Z,47.89
2023-02-13T23:17:18.544Z,47.44
2023-02-13T23:19:20.466Z,47.47
2023-02-13T23:21:22.924Z,47.53
2023-02-13T23:23:24.499Z,47.41
2023-02-13T23:25:27.649Z,47.74
2023-02-13T23:27:32.166Z,47.47
2023-02-13T23:29:33.802Z,47.90
2023-02-13T23:31:35.637Z,48.33
2023-02-13T23:33:37.562Z,48.11
2023-02-13T23:35:39.206Z,48.00
2023-02-13T23:37:41.287Z,47.96
2023-02-13T23:39:43.155Z,48.01
2023-02-13T23:41:46.193Z,48.15
2023-02-13T23:43:47.821Z,48.59
2023-02-13T23:45:49.406Z,48.89
2023-02-13T23:47:51.088Z,48.65
2023-02-13T23:49:52.723Z,49.11
2023-02-13T23:51:54.656Z,48.86
2023-02-13T23:53:56.853Z,48.82
2023-02-13T23:55:58.548Z,49.25
2023-02-13T23:58:02.014Z,49.59
